createdAt,value
2018-09-10T00:01:51.396Z,2.10
2018-09-10T00:04:20.546Z,2.50
2018-09-10T00:06:49.686Z,2.50
2018-09-10T00:09:18.843Z,2.67
2018-09-10T00:11:48.034Z,2.67
2018-09-10T00:14:19.081Z,2.60
2018-09-10T00:16:48.219Z,3.07
2018-09-10T00:19:17.555Z,2.80
2018-09-10T00:21:46.789Z,3.33
2018-09-10T00:24:15.897Z,2.90
2018-09-10T00:26:45.065Z,2.90
2018-09-10T00:29:14.176Z,2.50
2018-09-10T00:31:43.359Z,3.50
2018-09-10T00:34:12.503Z,3.00
2018-09-10T00:36:41.644Z,2.73
2018-09-10T00:39:13.065Z,2.60
2018-09-10T00:41:42.383Z,2.40
2018-09-10T00:44:11.534Z,2.63
2018-09-10T00:46:40.697Z,2.47
2018-09-10T00:49:09.875Z,2.47
2018-09-10T00:51:39.042Z,2.20
2018-09-10T00:54:08.179Z,2.37
2018-09-10T00:56:37.309Z,2.60
2018-09-10T00:59:06.449Z,2.50
2018-09-10T01:01:35.672Z,2.67
2018-09-10T01:04:04.794Z,2.87
2018-09-10T01:06:33.965Z,2.97
2018-09-10T01:09:03.555Z,2.77
2018-09-10T01:11:32.670Z,2.50
2018-09-10T01:14:01.829Z,2.77
2018-09-10T01:16:30.733Z,2.67
2018-09-10T01:18:59.423Z,2.80
2018-09-10T01:21:28.121Z,2.70
2018-09-10T01:23:56.864Z,3.00
2018-09-10T01:26:25.545Z,2.87
2018-09-10T01:28:54.242Z,3.00
2018-09-10T01:31:22.913Z,2.73
2018-09-10T01:33:57.144Z,2.87
2018-09-10T01:36:25.873Z,2.90
2018-09-10T01:38:54.882Z,2.73
2018-09-10T01:41:24.069Z,3.03
2018-09-10T01:43:53.712Z,2.63
2018-09-10T01:46:22.839Z,2.83
2018-09-10T01:48:52.004Z,2.97
2018-09-10T01:51:21.160Z,2.80
2018-09-10T01:53:50.317Z,3.10
2018-09-10T01:56:19.461Z,2.90
2018-09-10T01:58:48.863Z,2.97
2018-09-10T02:01:18.148Z,3.17
2018-09-10T02:03:47.343Z,2.80
2018-09-10T02:06:16.505Z,2.50
2018-09-10T02:08:45.655Z,2.53
2018-09-10T02:11:14.821Z,2.63
2018-09-10T02:13:43.993Z,2.37
2018-09-10T02:16:15.611Z,3.10
2018-09-10T02:18:45.809Z,2.70
2018-09-10T02:21:15.336Z,3.00
2018-09-10T02:23:44.716Z,3.10
2018-09-10T02:26:13.766Z,2.53
2018-09-10T02:28:42.872Z,2.93
2018-09-10T02:31:12.009Z,2.80
2018-09-10T02:33:41.159Z,2.43
2018-09-10T02:36:10.302Z,2.80
2018-09-10T02:38:39.550Z,2.50
2018-09-10T02:41:08.597Z,2.87
2018-09-10T02:43:37.727Z,3.00
2018-09-10T02:46:07.244Z,2.60
2018-09-10T02:48:36.350Z,2.70
2018-09-10T02:51:05.509Z,2.50
2018-09-10T02:53:34.637Z,2.50
2018-09-10T02:56:03.804Z,2.80
2018-09-10T02:58:32.959Z,2.97
2018-09-10T03:01:02.071Z,2.80
2018-09-10T03:03:31.162Z,3.07
2018-09-10T03:06:00.335Z,3.10
2018-09-10T03:08:29.454Z,3.20
2018-09-10T03:10:58.587Z,3.17
2018-09-10T03:13:27.733Z,3.00
2018-09-10T03:15:56.884Z,3.20
2018-09-10T03:18:26.068Z,3.00
2018-09-10T03:20:55.165Z,3.20
2018-09-10T03:23:24.296Z,2.93
2018-09-10T03:25:53.501Z,3.00
2018-09-10T03:28:22.609Z,3.13
2018-09-10T03:30:52.041Z,3.43
2018-09-10T03:33:21.176Z,3.30
2018-09-10T03:35:50.322Z,3.33
2018-09-10T03:38:19.482Z,3.47
2018-09-10T03:40:48.676Z,3.03
2018-09-10T03:43:17.760Z,3.13
2018-09-10T03:45:46.925Z,3.23
2018-09-10T03:48:16.116Z,2.73
2018-09-10T03:50:45.263Z,2.80
2018-09-10T03:53:14.391Z,2.70
2018-09-10T03:55:43.550Z,3.33
2018-09-10T03:58:12.725Z,3.13
2018-09-10T04:00:41.841Z,3.20
2018-09-10T04:03:10.955Z,3.27
2018-09-10T04:05:40.095Z,3.23
2018-09-10T04:08:09.193Z,3.83
2018-09-10T04:10:38.293Z,3.40
2018-09-10T04:13:07.496Z,3.70
2018-09-10T04:15:36.622Z,3.00
2018-09-10T04:18:05.793Z,3.23
2018-09-10T04:20:34.923Z,3.33
2018-09-10T04:23:04.049Z,3.30
2018-09-10T04:25:33.162Z,3.17
2018-09-10T04:28:02.378Z,3.23
2018-09-10T04:30:31.563Z,3.20
2018-09-10T04:33:00.665Z,2.83
2018-09-10T04:35:29.814Z,3.10
2018-09-10T04:37:58.925Z,3.00
2018-09-10T04:40:28.082Z,2.70
2018-09-10T04:42:57.273Z,2.47
2018-09-10T04:45:26.369Z,3.30
2018-09-10T04:47:55.568Z,2.70
2018-09-10T04:50:24.693Z,2.80
2018-09-10T04:52:53.931Z,2.90
2018-09-10T04:55:23.062Z,2.73
2018-09-10T04:57:52.246Z,2.97
2018-09-10T05:00:21.382Z,3.00
2018-09-10T05:02:50.598Z,2.43
2018-09-10T05:05:19.737Z,2.80
2018-09-10T05:07:48.901Z,3.13
2018-09-10T05:10:18.053Z,2.70
2018-09-10T05:12:47.266Z,3.30
2018-09-10T05:15:16.405Z,3.10
2018-09-10T05:17:46.410Z,2.83
2018-09-10T05:20:15.545Z,4.57
2018-09-10T05:22:44.749Z,4.00
2018-09-10T05:25:13.935Z,3.83
2018-09-10T05:27:43.130Z,2.83
2018-09-10T05:30:12.265Z,2.97
2018-09-10T05:32:41.434Z,3.20
2018-09-10T05:35:10.614Z,3.37
2018-09-10T05:37:39.799Z,3.30
2018-09-10T05:40:09.742Z,3.30
2018-09-10T05:42:38.964Z,2.93
2018-09-10T05:45:10.549Z,3.20
2018-09-10T05:47:40.163Z,2.83
2018-09-10T05:50:10.057Z,3.57
2018-09-10T05:52:39.453Z,3.17
2018-09-10T05:55:08.618Z,3.27
2018-09-10T05:57:37.813Z,3.30
2018-09-10T06:00:08.666Z,3.20
2018-09-10T06:02:38.151Z,8.53
2018-09-10T06:05:07.300Z,6.70
2018-09-10T06:07:36.470Z,3.80
2018-09-10T06:10:05.749Z,3.80
2018-09-10T06:12:34.869Z,8.73
2018-09-10T06:15:04.131Z,8.17
2018-09-10T06:17:33.349Z,10.70
2018-09-10T06:20:02.466Z,5.53
2018-09-10T06:22:31.712Z,4.73
2018-09-10T06:25:00.910Z,3.67
2018-09-10T06:27:30.005Z,3.03
2018-09-10T06:29:59.163Z,4.13
2018-09-10T06:32:28.317Z,6.33
2018-09-10T06:34:57.504Z,4.90
2018-09-10T06:37:26.639Z,8.33
2018-09-10T06:39:55.779Z,4.80
2018-09-10T06:42:24.902Z,4.07
2018-09-10T06:44:54.040Z,3.60
2018-09-10T06:47:23.203Z,3.70
2018-09-10T06:49:52.374Z,3.70
2018-09-10T06:52:21.525Z,3.70
2018-09-10T06:54:50.661Z,4.03
2018-09-10T06:57:19.838Z,4.23
2018-09-10T06:59:49.048Z,3.73
2018-09-10T07:02:18.187Z,3.90
2018-09-10T07:04:47.458Z,3.80
2018-09-10T07:07:16.574Z,3.77
2018-09-10T07:09:45.710Z,3.63
2018-09-10T07:12:14.839Z,3.67
2018-09-10T07:14:44.021Z,3.77
2018-09-10T07:17:13.169Z,3.87
2018-09-10T07:19:42.476Z,4.10
2018-09-10T07:22:11.569Z,3.83
2018-09-10T07:24:40.714Z,3.80
2018-09-10T07:27:09.822Z,4.20
2018-09-10T07:29:38.965Z,4.20
2018-09-10T07:32:08.111Z,4.10
2018-09-10T07:34:37.315Z,3.60
2018-09-10T07:37:06.420Z,3.57
2018-09-10T07:39:35.589Z,3.73
2018-09-10T07:42:04.738Z,3.63
2018-09-10T07:44:33.875Z,4.23
2018-09-10T07:47:03.080Z,4.03
2018-09-10T07:49:32.266Z,3.90
2018-09-10T07:52:01.437Z,3.50
2018-09-10T07:54:30.666Z,3.67
2018-09-10T07:56:59.843Z,3.53
2018-09-10T07:59:28.984Z,3.70
2018-09-10T08:01:58.144Z,3.87
2018-09-10T08:04:27.401Z,4.03
2018-09-10T08:06:56.539Z,3.90
2018-09-10T08:09:26.061Z,3.50
2018-09-10T08:11:55.023Z,4.73
2018-09-10T08:14:24.148Z,4.63
2018-09-10T08:16:53.312Z,4.23
2018-09-10T08:19:25.463Z,4.67
2018-09-10T08:21:54.617Z,4.30
2018-09-10T08:24:23.807Z,4.80
2018-09-10T08:26:52.941Z,4.40
2018-09-10T08:29:22.164Z,4.47
2018-09-10T08:31:51.456Z,4.57
2018-09-10T08:34:20.629Z,5.00
2018-09-10T08:36:49.873Z,5.07
2018-09-10T08:39:19.090Z,4.33
2018-09-10T08:41:48.270Z,3.93
2018-09-10T08:44:18.413Z,3.93
2018-09-10T08:46:47.678Z,4.60
2018-09-10T08:49:16.868Z,3.90
2018-09-10T08:51:46.011Z,4.20
2018-09-10T08:54:15.198Z,4.50
2018-09-10T08:56:44.265Z,4.57
2018-09-10T08:59:13.451Z,4.00
2018-09-10T09:01:42.704Z,4.17
2018-09-10T09:04:11.855Z,5.00
2018-09-10T09:06:41.031Z,4.33
2018-09-10T09:09:10.333Z,4.63
2018-09-10T09:11:39.518Z,4.33
2018-09-10T09:14:08.870Z,4.13
2018-09-10T09:16:37.990Z,4.63
2018-09-10T09:19:07.166Z,4.87
2018-09-10T09:21:36.322Z,4.43
2018-09-10T09:24:05.604Z,4.10
2018-09-10T09:26:34.750Z,4.40
2018-09-10T09:29:03.976Z,3.67
2018-09-10T09:31:33.110Z,4.47
2018-09-10T09:34:02.217Z,4.67
2018-09-10T09:36:36.560Z,3.90
2018-09-10T09:39:12.371Z,4.10
2018-09-10T09:41:46.777Z,4.17
2018-09-10T09:44:21.254Z,4.20
2018-09-10T09:46:50.405Z,3.87
2018-09-10T09:49:19.549Z,4.03
2018-09-10T09:51:48.726Z,4.47
2018-09-10T09:54:17.955Z,3.70
2018-09-10T09:56:47.283Z,3.73
2018-09-10T09:59:16.406Z,3.53
2018-09-10T10:01:51.950Z,3.60
2018-09-10T10:04:21.168Z,3.83
2018-09-10T10:06:50.554Z,3.57
2018-09-10T10:09:19.753Z,4.87
2018-09-10T10:11:49.072Z,4.90
2018-09-10T10:14:18.062Z,4.50
2018-09-10T10:16:47.204Z,4.35
2018-09-10T10:19:16.375Z,3.85
2018-09-10T10:21:45.507Z,4.22
2018-09-10T10:24:14.656Z,5.37
2018-09-10T10:26:43.803Z,3.93
2018-09-10T10:29:12.949Z,4.20
2018-09-10T10:31:42.079Z,4.03
2018-09-10T10:34:11.241Z,4.00
2018-09-10T10:36:40.416Z,4.83
2018-09-10T10:39:09.759Z,3.70
2018-09-10T10:41:38.922Z,4.10
2018-09-10T10:44:08.099Z,3.37
2018-09-10T10:46:37.269Z,3.83
2018-09-10T10:49:06.457Z,3.08
2018-09-10T10:51:35.736Z,3.35
2018-09-10T10:54:04.862Z,3.77
2018-09-10T10:56:34.010Z,3.02
2018-09-10T10:59:03.218Z,3.62
2018-09-10T11:01:32.366Z,2.90
2018-09-10T11:04:01.495Z,2.77
2018-09-10T11:06:30.644Z,2.97
2018-09-10T11:08:59.831Z,3.00
2018-09-10T11:11:28.961Z,3.50
2018-09-10T11:13:58.153Z,2.80
2018-09-10T11:16:27.315Z,3.25
2018-09-10T11:18:56.520Z,2.77
2018-09-10T11:21:25.689Z,2.30
2018-09-10T11:23:55.377Z,2.55
2018-09-10T11:26:24.561Z,2.90
2018-09-10T11:28:53.681Z,2.80
2018-09-10T11:31:22.837Z,2.80
2018-09-10T11:33:51.978Z,2.25
2018-09-10T11:36:21.574Z,2.22
2018-09-10T11:38:50.799Z,2.58
2018-09-10T11:41:19.925Z,1.67
2018-09-10T11:43:49.071Z,2.45
2018-09-10T11:46:18.283Z,1.90
2018-09-10T11:48:47.496Z,1.80
2018-09-10T11:51:16.722Z,2.47
2018-09-10T11:53:45.971Z,2.00
2018-09-10T11:56:15.185Z,2.10
2018-09-10T11:58:44.341Z,2.10
2018-09-10T12:01:13.498Z,2.65
2018-09-10T12:03:42.650Z,2.40
2018-09-10T12:06:11.746Z,2.33
2018-09-10T12:08:40.933Z,1.87
2018-09-10T12:11:10.080Z,2.10
2018-09-10T12:13:39.333Z,5.55
2018-09-10T12:16:08.344Z,3.20
2018-09-10T12:18:37.433Z,2.08
2018-09-10T12:21:06.700Z,1.92
2018-09-10T12:23:35.784Z,1.92
2018-09-10T12:26:04.944Z,4.08
2018-09-10T12:28:34.102Z,4.40
2018-09-10T12:31:03.210Z,2.47
2018-09-10T12:33:32.426Z,4.78
2018-09-10T12:36:01.549Z,5.90
2018-09-10T12:38:30.677Z,5.17
2018-09-10T12:40:59.809Z,4.37
2018-09-10T12:43:29.024Z,7.62
2018-09-10T12:45:58.114Z,3.17
2018-09-10T12:48:27.322Z,2.37
2018-09-10T12:50:56.477Z,3.25
2018-09-10T12:53:25.611Z,4.75
2018-09-10T12:55:54.762Z,3.50
2018-09-10T13:00:59.332Z,4.83
2018-09-10T13:03:28.453Z,7.65
2018-09-10T13:05:57.623Z,6.08
2018-09-10T13:08:26.790Z,3.17
2018-09-10T13:10:56.014Z,2.37
2018-09-10T13:13:25.122Z,2.05
2018-09-10T13:15:54.310Z,1.95
2018-09-10T13:18:23.473Z,2.00
2018-09-10T13:20:52.605Z,2.00
2018-09-10T13:23:21.733Z,3.72
2018-09-10T13:25:50.918Z,2.15
2018-09-10T13:28:20.054Z,2.42
2018-09-10T13:30:49.197Z,2.02
2018-09-10T13:33:18.347Z,2.30
2018-09-10T13:35:47.462Z,2.62
2018-09-10T13:38:16.698Z,2.70
2018-09-10T13:40:45.817Z,2.33
2018-09-10T13:43:15.000Z,2.33
2018-09-10T13:45:44.170Z,2.25
2018-09-10T13:48:13.368Z,2.10
2018-09-10T13:50:42.564Z,1.90
2018-09-10T13:53:11.697Z,2.10
2018-09-10T13:55:40.857Z,2.33
2018-09-10T13:58:10.261Z,2.00
2018-09-10T14:00:39.460Z,2.30
2018-09-10T14:03:08.624Z,2.40
2018-09-10T14:05:37.774Z,2.10
2018-09-10T14:08:06.976Z,1.98
2018-09-10T14:10:36.159Z,2.00
2018-09-10T14:13:05.306Z,1.87
2018-09-10T14:15:34.501Z,2.25
2018-09-10T14:18:03.681Z,2.60
2018-09-10T14:20:32.872Z,2.27
2018-09-10T14:23:02.018Z,3.08
2018-09-10T14:25:31.180Z,2.55
2018-09-10T14:28:00.374Z,2.37
2018-09-10T14:30:29.498Z,3.00
2018-09-10T14:32:58.622Z,2.10
2018-09-10T14:35:27.772Z,2.70
2018-09-10T14:37:56.969Z,2.15
2018-09-10T14:40:26.407Z,2.27
2018-09-10T14:42:56.249Z,2.05
2018-09-10T14:45:25.457Z,2.47
2018-09-10T14:47:54.643Z,2.52
2018-09-10T14:50:23.831Z,2.12
2018-09-10T14:52:52.928Z,2.27
2018-09-10T14:55:22.053Z,2.67
2018-09-10T14:57:51.216Z,2.20
2018-09-10T15:00:26.378Z,2.20
2018-09-10T15:02:56.493Z,2.30
2018-09-10T15:05:25.682Z,2.30
2018-09-10T15:07:55.034Z,1.75
2018-09-10T15:10:24.168Z,1.95
2018-09-10T15:12:53.283Z,2.40
2018-09-10T15:15:22.438Z,2.05
2018-09-10T15:17:51.637Z,11.90
2018-09-10T15:20:20.811Z,2.37
2018-09-10T15:22:49.929Z,2.20
2018-09-10T15:25:19.090Z,1.95
2018-09-10T15:27:48.287Z,2.02
2018-09-10T15:30:17.422Z,2.10
2018-09-10T15:32:46.576Z,2.30
2018-09-10T15:35:15.741Z,2.20
2018-09-10T15:37:44.838Z,2.00
2018-09-10T15:40:14.011Z,2.20
2018-09-10T15:42:43.378Z,2.60
2018-09-10T15:45:12.531Z,2.83
2018-09-10T15:47:41.691Z,2.20
2018-09-10T15:50:10.912Z,2.05
2018-09-10T15:52:40.070Z,2.60
2018-09-10T15:55:09.254Z,2.50
2018-09-10T15:57:38.440Z,2.20
2018-09-10T16:00:07.631Z,2.10
2018-09-10T16:02:36.743Z,2.20
2018-09-10T16:05:05.947Z,2.25
2018-09-10T16:07:35.245Z,2.40
2018-09-10T16:10:04.763Z,2.17
2018-09-10T16:12:33.913Z,2.50
2018-09-10T16:15:03.141Z,2.17
2018-09-10T16:17:32.338Z,2.25
2018-09-10T16:20:01.511Z,1.95
2018-09-10T16:22:30.678Z,2.35
2018-09-10T16:24:59.805Z,2.20
2018-09-10T16:27:28.957Z,1.87
2018-09-10T16:29:58.085Z,2.10
2018-09-10T16:32:27.430Z,2.35
2018-09-10T16:34:56.634Z,2.30
2018-09-10T16:37:25.930Z,2.30
2018-09-10T16:39:55.094Z,2.40
2018-09-10T16:42:24.246Z,1.85
2018-09-10T16:44:53.347Z,2.12
2018-09-10T16:47:22.502Z,2.33
2018-09-10T16:49:51.703Z,2.30
2018-09-10T16:52:20.998Z,2.37
2018-09-10T16:54:50.239Z,2.60
2018-09-10T16:57:19.364Z,2.45
2018-09-10T16:59:48.529Z,2.22
2018-09-10T17:02:17.701Z,2.67
2018-09-10T17:04:47.607Z,1.90
2018-09-10T17:07:16.783Z,1.95
2018-09-10T17:09:45.960Z,2.30
2018-09-10T17:12:15.159Z,2.58
2018-09-10T17:14:44.314Z,1.80
2018-09-10T17:17:13.441Z,2.10
2018-09-10T17:19:42.689Z,2.60
2018-09-10T17:22:11.816Z,2.70
2018-09-10T17:24:41.030Z,2.45
2018-09-10T17:27:10.160Z,2.50
2018-09-10T17:29:39.320Z,2.35
2018-09-10T17:32:08.519Z,2.65
2018-09-10T17:34:37.719Z,2.52
2018-09-10T17:37:06.968Z,3.45
2018-09-10T17:39:37.276Z,4.08
2018-09-10T17:42:06.527Z,3.42
2018-09-10T17:44:35.702Z,3.70
2018-09-10T17:47:05.171Z,4.55
2018-09-10T17:49:34.208Z,3.60
2018-09-10T17:52:03.354Z,3.67
2018-09-10T17:54:32.566Z,2.87
2018-09-10T17:57:01.770Z,2.35
2018-09-10T17:59:30.969Z,2.87
2018-09-10T18:02:00.142Z,2.98
2018-09-10T18:04:29.295Z,3.10
2018-09-10T18:06:58.495Z,2.90
2018-09-10T18:09:27.748Z,3.25
2018-09-10T18:11:56.880Z,2.90
2018-09-10T18:14:26.025Z,2.65
2018-09-10T18:16:55.177Z,2.92
2018-09-10T18:19:24.349Z,3.25
2018-09-10T18:21:53.509Z,2.70
2018-09-10T18:24:22.618Z,3.02
2018-09-10T18:26:51.760Z,3.60
2018-09-10T18:29:20.935Z,3.02
2018-09-10T18:31:50.061Z,2.87
2018-09-10T18:34:19.270Z,3.00
2018-09-10T18:36:48.385Z,2.83
2018-09-10T18:39:17.608Z,2.83
2018-09-10T18:41:46.781Z,2.92
2018-09-10T18:44:15.946Z,3.00
2018-09-10T18:46:45.154Z,3.47
2018-09-10T18:49:14.367Z,3.25
2018-09-10T18:51:43.591Z,3.25
2018-09-10T18:54:12.742Z,3.08
2018-09-10T18:56:41.930Z,3.00
2018-09-10T18:59:11.253Z,3.50
2018-09-10T19:01:40.612Z,3.40
2018-09-10T19:04:09.762Z,3.65
2018-09-10T19:06:39.050Z,3.22
2018-09-10T19:09:10.121Z,3.12
2018-09-10T19:11:39.473Z,3.30
2018-09-10T19:14:09.414Z,2.70
2018-09-10T19:16:38.649Z,4.08
2018-09-10T19:19:07.981Z,3.83
2018-09-10T19:21:37.207Z,3.10
2018-09-10T19:24:06.399Z,2.90
2018-09-10T19:26:35.585Z,2.62
2018-09-10T19:29:04.861Z,3.03
2018-09-10T19:31:33.978Z,3.37
2018-09-10T19:34:03.804Z,2.98
2018-09-10T19:36:32.971Z,2.90
2018-09-10T19:39:02.170Z,2.95
2018-09-10T19:41:31.342Z,2.70
2018-09-10T19:44:00.523Z,2.80
2018-09-10T19:46:29.681Z,2.58
2018-09-10T19:48:58.824Z,2.92
2018-09-10T19:51:28.015Z,2.65
2018-09-10T19:53:57.191Z,3.25
2018-09-10T19:56:26.340Z,2.72
2018-09-10T19:58:55.591Z,3.00
2018-09-10T20:01:25.665Z,2.90
2018-09-10T20:03:54.959Z,3.03
2018-09-10T20:06:24.129Z,2.95
2018-09-10T20:08:53.279Z,2.80
2018-09-10T20:11:22.456Z,3.10
2018-09-10T20:13:51.646Z,3.00
2018-09-10T20:16:21.017Z,2.67
2018-09-10T20:18:50.169Z,3.23
2018-09-10T20:21:19.442Z,2.87
2018-09-10T20:23:48.762Z,3.10
2018-09-10T20:26:17.922Z,3.07
2018-09-10T20:28:47.133Z,3.10
2018-09-10T20:31:16.486Z,3.33
2018-09-10T20:33:51.060Z,2.97
2018-09-10T20:36:20.363Z,3.10
2018-09-10T20:38:49.585Z,3.20
2018-09-10T20:41:19.024Z,3.02
2018-09-10T20:43:48.299Z,3.10
2018-09-10T20:46:17.590Z,2.73
2018-09-10T20:48:46.839Z,3.40
2018-09-10T20:51:16.080Z,3.80
2018-09-10T20:53:45.588Z,4.50
2018-09-10T20:56:14.770Z,4.73
2018-09-10T20:58:43.909Z,5.03
2018-09-10T21:01:13.155Z,5.07
2018-09-10T21:03:42.391Z,4.50
2018-09-10T21:06:11.616Z,4.30
2018-09-10T21:08:40.909Z,4.40
2018-09-10T21:11:10.472Z,3.93
2018-09-10T21:13:39.656Z,3.70
2018-09-10T21:16:08.809Z,3.87
2018-09-10T21:18:37.995Z,3.53
2018-09-10T21:21:07.259Z,4.20
2018-09-10T21:23:36.433Z,3.77
2018-09-10T21:26:05.668Z,4.40
2018-09-10T21:28:34.888Z,4.60
2018-09-10T21:31:04.034Z,4.50
2018-09-10T21:33:33.181Z,4.73
2018-09-10T21:36:02.408Z,4.30
2018-09-10T21:38:31.693Z,4.07
2018-09-10T21:41:00.871Z,3.97
2018-09-10T21:43:30.041Z,3.77
2018-09-10T21:45:59.262Z,3.90
2018-09-10T21:48:28.450Z,3.90
2018-09-10T21:50:57.681Z,3.70
2018-09-10T21:53:26.869Z,4.03
2018-09-10T21:55:56.073Z,3.80
2018-09-10T21:58:25.264Z,3.77
2018-09-10T22:00:56.212Z,3.90
2018-09-10T22:03:25.551Z,4.30
2018-09-10T22:05:55.187Z,3.70
2018-09-10T22:08:24.919Z,4.37
2018-09-10T22:10:54.092Z,4.30
2018-09-10T22:13:23.265Z,4.00
2018-09-10T22:15:52.397Z,3.70
2018-09-10T22:18:21.679Z,4.27
2018-09-10T22:20:50.841Z,4.13
2018-09-10T22:23:20.009Z,3.90
2018-09-10T22:25:49.135Z,3.97
2018-09-10T22:28:18.318Z,3.80
2018-09-10T22:30:47.483Z,4.10
2018-09-10T22:33:16.677Z,4.53
2018-09-10T22:35:45.834Z,4.40
2018-09-10T22:38:14.993Z,5.03
2018-09-10T22:40:44.126Z,4.80
2018-09-10T22:43:13.408Z,4.33
2018-09-10T22:45:42.558Z,4.83
2018-09-10T22:48:11.732Z,5.20
2018-09-10T22:50:40.884Z,4.80
2018-09-10T22:53:10.051Z,5.70
2018-09-10T22:55:39.240Z,4.77
2018-09-10T22:58:08.420Z,5.87
2018-09-10T23:00:37.572Z,5.27
2018-09-10T23:03:06.776Z,4.73
2018-09-10T23:05:35.929Z,5.27
2018-09-10T23:08:05.085Z,4.70
2018-09-10T23:10:34.224Z,5.40
2018-09-10T23:13:03.370Z,5.20
2018-09-10T23:15:32.546Z,4.73
2018-09-10T23:18:01.653Z,4.93
2018-09-10T23:20:30.769Z,4.90
2018-09-10T23:22:59.896Z,5.30
2018-09-10T23:25:29.043Z,5.07
2018-09-10T23:27:58.150Z,5.07
2018-09-10T23:30:27.298Z,4.70
2018-09-10T23:32:56.460Z,5.50
2018-09-10T23:35:25.556Z,5.40
2018-09-10T23:37:54.684Z,5.10
2018-09-10T23:40:23.796Z,4.60
2018-09-10T23:42:52.974Z,4.93
2018-09-10T23:45:22.114Z,4.83
2018-09-10T23:47:51.285Z,4.60
2018-09-10T23:50:20.457Z,4.10
2018-09-10T23:52:49.674Z,4.47
2018-09-10T23:55:18.842Z,4.70
2018-09-10T23:57:48.015Z,4.50
